createdAt,value
2022-10-02T00:01:28.559Z,1.03
2022-10-02T00:04:02.513Z,0.50
2022-10-02T00:06:43.934Z,0.52
2022-10-02T00:09:20.129Z,0.60
2022-10-02T00:11:53.616Z,0.43
2022-10-02T00:14:24.090Z,0.47
2022-10-02T00:16:54.563Z,0.40
2022-10-02T00:19:23.862Z,0.50
2022-10-02T00:22:22.199Z,0.63
2022-10-02T00:24:56.369Z,0.55
2022-10-02T00:27:38.777Z,0.70
2022-10-02T00:30:11.334Z,0.50
2022-10-02T00:32:57.141Z,0.30
2022-10-02T00:35:56.746Z,0.60
2022-10-02T00:38:37.469Z,0.63
2022-10-02T00:41:34.162Z,0.38
2022-10-02T00:44:18.264Z,0.38
2022-10-02T00:46:54.545Z,0.68
2022-10-02T00:49:54.920Z,0.28
2022-10-02T00:52:47.171Z,0.50
2022-10-02T00:55:49.306Z,0.55
2022-10-02T00:58:48.064Z,0.95
2022-10-02T01:01:22.398Z,0.30
2022-10-02T01:03:54.634Z,0.40
2022-10-02T01:06:26.496Z,0.30
2022-10-02T01:08:56.729Z,0.63
2022-10-02T01:11:26.977Z,0.35
2022-10-02T01:13:58.407Z,0.40
2022-10-02T01:16:26.960Z,0.40
2022-10-02T01:18:54.896Z,0.52
2022-10-02T01:21:32.237Z,0.50
2022-10-02T01:24:14.238Z,0.40
2022-10-02T01:26:43.769Z,0.30
2022-10-02T01:29:14.796Z,0.52
2022-10-02T01:31:45.156Z,0.40
2022-10-02T01:34:18.374Z,0.50
2022-10-02T01:36:46.644Z,0.25
2022-10-02T01:39:14.591Z,0.40
2022-10-02T01:41:45.651Z,0.50
2022-10-02T01:44:19.730Z,0.40
2022-10-02T01:49:57.116Z,0.75
2022-10-02T01:52:45.874Z,0.40
2022-10-02T01:55:35.564Z,0.60
2022-10-02T01:58:17.604Z,0.60
2022-10-02T02:01:02.527Z,0.60
2022-10-02T02:03:53.800Z,0.85
2022-10-02T02:06:31.030Z,0.73
2022-10-02T02:09:09.130Z,0.80
2022-10-02T02:11:42.036Z,0.90
2022-10-02T02:14:17.464Z,0.95
2022-10-02T02:16:47.713Z,0.93
2022-10-02T02:19:22.832Z,0.50
2022-10-02T02:21:57.017Z,0.60
2022-10-02T02:26:59.203Z,0.50
2022-10-02T02:29:33.113Z,1.13
2022-10-02T02:32:04.035Z,0.80
2022-10-02T02:34:36.131Z,0.40
2022-10-02T02:37:08.094Z,0.52
2022-10-02T02:39:43.038Z,0.70
2022-10-02T02:42:17.696Z,0.60
2022-10-02T02:44:51.193Z,1.08
2022-10-02T02:47:27.194Z,0.80
2022-10-02T02:50:01.117Z,0.60
2022-10-02T02:52:33.280Z,1.33
2022-10-02T02:55:08.199Z,0.55
2022-10-02T02:57:42.068Z,1.08
2022-10-02T03:00:13.949Z,0.70
2022-10-02T03:02:41.732Z,1.02
2022-10-02T03:05:20.413Z,1.25
2022-10-02T03:07:53.254Z,0.80
2022-10-02T03:10:35.547Z,0.60
2022-10-02T03:13:15.619Z,1.70
2022-10-02T03:16:00.717Z,1.15
2022-10-02T03:18:43.133Z,1.50
2022-10-02T03:21:16.324Z,0.82
2022-10-02T03:23:57.161Z,1.00
2022-10-02T03:26:39.691Z,1.30
2022-10-02T03:29:22.007Z,1.20
2022-10-02T03:31:51.819Z,1.02
2022-10-02T03:34:20.349Z,1.25
2022-10-02T03:36:49.078Z,1.58
2022-10-02T03:39:25.557Z,1.33
2022-10-02T03:41:54.892Z,1.27
2022-10-02T03:44:22.818Z,1.33
2022-10-02T03:46:59.546Z,1.13
2022-10-02T03:49:27.617Z,1.20
2022-10-02T03:51:55.452Z,1.23
2022-10-02T03:54:23.942Z,1.27
2022-10-02T03:56:56.678Z,1.55
2022-10-02T03:59:38.553Z,1.50
2022-10-02T04:02:28.560Z,1.70
2022-10-02T04:05:11.273Z,1.77
2022-10-02T04:07:43.342Z,1.20
2022-10-02T04:10:26.895Z,2.03
2022-10-02T04:13:00.943Z,1.20
2022-10-02T04:15:31.966Z,1.20
2022-10-02T04:18:06.143Z,1.20
2022-10-02T04:20:41.696Z,1.30
2022-10-02T04:23:16.258Z,0.80
2022-10-02T04:25:53.607Z,1.45
2022-10-02T04:28:24.483Z,1.08
2022-10-02T04:30:54.299Z,1.63
2022-10-02T04:33:25.697Z,1.83
2022-10-02T04:36:01.599Z,1.48
2022-10-02T04:39:16.249Z,1.63
2022-10-02T04:42:00.602Z,1.20
2022-10-02T04:44:45.061Z,1.60
2022-10-02T04:47:41.568Z,1.42
2022-10-02T04:50:40.098Z,1.13
2022-10-02T04:53:22.267Z,2.58
2022-10-02T04:56:04.485Z,2.30
2022-10-02T04:59:05.293Z,2.28
2022-10-02T05:02:06.762Z,2.33
2022-10-02T05:04:52.571Z,2.75
2022-10-02T05:07:57.019Z,1.83
2022-10-02T05:10:55.751Z,1.58
2022-10-02T05:13:42.815Z,1.63
2022-10-02T05:16:24.676Z,2.13
2022-10-02T05:19:08.461Z,2.40
2022-10-02T05:22:08.687Z,1.83
2022-10-02T05:24:50.872Z,1.30
2022-10-02T05:28:05.440Z,1.50
2022-10-02T05:30:42.316Z,1.73
2022-10-02T05:33:48.453Z,1.40
2022-10-02T05:36:32.313Z,1.88
2022-10-02T05:39:08.873Z,1.30
2022-10-02T05:41:59.276Z,1.50
2022-10-02T05:44:35.857Z,1.42
2022-10-02T05:47:15.996Z,1.83
2022-10-02T05:49:54.511Z,1.80
2022-10-02T05:52:28.038Z,2.22
2022-10-02T05:55:03.356Z,2.15
2022-10-02T05:57:41.393Z,2.20
2022-10-02T06:00:33.594Z,2.35
2022-10-02T06:03:18.970Z,2.25
2022-10-02T06:05:55.246Z,2.20
2022-10-02T06:08:31.601Z,2.13
2022-10-02T06:11:20.251Z,2.13
2022-10-02T06:13:52.753Z,2.90
2022-10-02T06:16:40.897Z,1.95
2022-10-02T06:19:21.062Z,1.98
2022-10-02T06:21:59.777Z,2.47
2022-10-02T06:24:32.686Z,1.88
2022-10-02T06:27:07.597Z,1.75
2022-10-02T06:29:49.586Z,1.75
2022-10-02T06:32:24.712Z,1.95
2022-10-02T06:34:52.547Z,1.90
2022-10-02T06:37:50.851Z,1.90
2022-10-02T06:40:41.811Z,1.70
2022-10-02T06:43:33.486Z,1.48
2022-10-02T06:46:37.032Z,1.48
2022-10-02T06:49:12.015Z,1.45
2022-10-02T06:51:54.854Z,1.42
2022-10-02T06:54:49.714Z,1.25
2022-10-02T06:57:53.929Z,1.25
2022-10-02T07:00:22.507Z,1.40
2022-10-02T07:03:32.658Z,1.65
2022-10-02T07:06:20.461Z,1.40
2022-10-02T07:09:19.745Z,1.67
2022-10-02T07:12:06.871Z,1.10
2022-10-02T07:14:55.102Z,1.40
2022-10-02T07:17:38.493Z,1.23
2022-10-02T07:20:40.354Z,1.30
2022-10-02T07:24:01.412Z,1.60
2022-10-02T07:26:55.593Z,1.42
2022-10-02T07:29:37.613Z,1.30
2022-10-02T07:32:31.052Z,1.15
2022-10-02T07:35:26.410Z,1.00
2022-10-02T07:38:50.217Z,1.75
2022-10-02T07:41:31.147Z,2.08
2022-10-02T07:44:17.506Z,1.55
2022-10-02T07:47:03.600Z,1.15
2022-10-02T07:49:43.326Z,2.15
2022-10-02T07:52:24.904Z,2.45
2022-10-02T07:55:16.039Z,1.45
2022-10-02T07:57:52.302Z,1.48
2022-10-02T08:00:21.588Z,1.55
2022-10-02T08:02:52.905Z,1.35
2022-10-02T08:05:24.391Z,1.58
2022-10-02T08:08:01.470Z,1.40
2022-10-02T08:10:37.805Z,2.70
2022-10-02T08:13:14.649Z,1.80
2022-10-02T08:15:45.477Z,2.33
2022-10-02T08:18:34.152Z,1.92
2022-10-02T08:21:05.184Z,1.98
2022-10-02T08:23:40.575Z,2.08
2022-10-02T08:26:15.518Z,1.90
2022-10-02T08:28:47.939Z,1.55
2022-10-02T08:31:16.331Z,1.20
2022-10-02T08:33:44.214Z,1.92
2022-10-02T08:36:33.587Z,2.25
2022-10-02T08:39:10.910Z,1.58
2022-10-02T08:42:26.372Z,1.42
2022-10-02T08:48:14.963Z,1.73
2022-10-02T08:51:10.488Z,1.92
2022-10-02T08:54:26.415Z,1.33
2022-10-02T08:57:14.857Z,1.48
2022-10-02T09:00:21.295Z,0.98
2022-10-02T09:03:30.141Z,1.45
2022-10-02T09:06:47.017Z,1.55
2022-10-02T09:10:11.323Z,2.15
2022-10-02T09:13:04.755Z,3.53
2022-10-02T09:15:46.329Z,2.80
2022-10-02T09:18:25.938Z,2.58
2022-10-02T09:21:14.678Z,1.88
2022-10-02T09:24:35.916Z,1.50
2022-10-02T09:27:37.145Z,1.52
2022-10-02T09:30:27.419Z,1.42
2022-10-02T09:33:36.017Z,1.15
2022-10-02T09:36:32.522Z,1.20
2022-10-02T09:39:51.255Z,1.10
2022-10-02T09:43:03.798Z,0.90
2022-10-02T09:46:07.156Z,1.33
2022-10-02T09:49:18.517Z,0.90
2022-10-02T09:52:11.617Z,1.45
2022-10-02T09:55:20.915Z,1.38
2022-10-02T09:58:17.070Z,1.45
2022-10-02T10:01:02.046Z,1.63
2022-10-02T10:04:14.121Z,0.95
2022-10-02T10:07:19.046Z,0.90
2022-10-02T10:13:06.550Z,0.75
2022-10-02T10:16:16.578Z,0.60
2022-10-02T10:19:23.721Z,0.60
2022-10-02T10:22:38.952Z,1.15
2022-10-02T10:25:50.401Z,0.75
2022-10-02T10:28:46.949Z,1.42
2022-10-02T10:31:42.668Z,0.90
2022-10-02T10:34:46.302Z,1.02
2022-10-02T10:37:59.449Z,0.95
2022-10-02T10:40:46.141Z,0.88
2022-10-02T10:43:43.106Z,1.10
2022-10-02T10:46:34.037Z,0.85
2022-10-02T10:49:23.187Z,0.70
2022-10-02T10:52:07.393Z,0.52
2022-10-02T10:54:58.126Z,0.95
2022-10-02T10:57:41.120Z,0.75
2022-10-02T11:00:23.426Z,0.57
2022-10-02T11:03:00.103Z,0.47
2022-10-02T11:06:04.181Z,0.82
2022-10-02T11:09:29.857Z,0.50
2022-10-02T11:12:24.424Z,1.35
2022-10-02T11:15:13.202Z,0.68
2022-10-02T11:18:03.639Z,0.98
2022-10-02T11:20:51.031Z,0.82
2022-10-02T11:23:48.226Z,0.90
2022-10-02T11:26:32.456Z,1.02
2022-10-02T11:29:17.507Z,1.20
2022-10-02T11:32:21.102Z,0.75
2022-10-02T11:35:19.404Z,1.10
2022-10-02T11:38:30.367Z,0.50
2022-10-02T11:41:24.835Z,1.15
2022-10-02T11:44:11.582Z,0.68
2022-10-02T11:46:57.682Z,0.70
2022-10-02T11:50:14.654Z,0.85
2022-10-02T11:53:01.163Z,0.73
2022-10-02T11:55:49.301Z,0.57
2022-10-02T11:58:28.881Z,0.55
2022-10-02T12:01:20.031Z,0.50
2022-10-02T12:03:56.211Z,0.80
2022-10-02T12:06:37.550Z,0.38
2022-10-02T12:09:26.783Z,0.55
2022-10-02T12:12:09.227Z,0.50
2022-10-02T12:14:50.475Z,0.55
2022-10-02T12:17:55.518Z,0.80
2022-10-02T12:23:45.471Z,0.30
2022-10-02T12:26:53.337Z,0.30
2022-10-02T12:29:32.575Z,0.80
2022-10-02T12:32:13.113Z,0.30
2022-10-02T12:34:51.871Z,0.43
2022-10-02T12:37:26.398Z,0.70
2022-10-02T12:40:06.619Z,1.00
2022-10-02T12:43:00.249Z,0.40
2022-10-02T12:45:58.669Z,0.50
2022-10-02T12:48:51.102Z,0.57
2022-10-02T12:51:37.214Z,0.70
2022-10-02T12:54:53.942Z,0.43
2022-10-02T12:58:01.792Z,0.60
2022-10-02T13:00:44.580Z,0.35
2022-10-02T13:03:56.826Z,0.80
2022-10-02T13:07:13.559Z,0.30
2022-10-02T13:09:55.514Z,0.55
2022-10-02T13:12:40.254Z,0.45
2022-10-02T13:15:29.076Z,0.60
2022-10-02T13:18:12.007Z,0.50
2022-10-02T13:20:43.471Z,0.80
2022-10-02T13:23:25.646Z,0.60
2022-10-02T13:26:04.130Z,0.40
2022-10-02T13:29:09.808Z,0.45
2022-10-02T13:32:24.154Z,0.85
2022-10-02T13:35:16.033Z,0.65
2022-10-02T13:37:58.513Z,0.60
2022-10-02T13:40:35.362Z,0.60
2022-10-02T13:43:30.698Z,0.80
2022-10-02T13:46:15.333Z,0.50
2022-10-02T13:48:59.992Z,0.60
2022-10-02T13:54:50.027Z,0.57
2022-10-02T13:57:51.073Z,0.22
2022-10-02T14:00:40.134Z,0.50
2022-10-02T14:03:25.822Z,0.50
2022-10-02T14:06:01.316Z,0.47
2022-10-02T14:08:54.887Z,0.47
2022-10-02T14:11:47.836Z,0.40
2022-10-02T14:14:31.678Z,0.50
2022-10-02T14:17:10.120Z,0.40
2022-10-02T14:19:52.828Z,0.50
2022-10-02T14:22:37.959Z,0.40
2022-10-02T14:25:26.963Z,0.50
2022-10-02T14:28:31.389Z,0.57
2022-10-02T14:31:27.265Z,0.68
2022-10-02T14:34:25.053Z,0.80
2022-10-02T14:37:16.900Z,0.77
2022-10-02T14:39:45.660Z,0.70
2022-10-02T14:42:34.251Z,0.60
2022-10-02T14:45:30.907Z,0.80
2022-10-02T14:48:30.351Z,0.65
2022-10-02T14:51:20.562Z,0.40
2022-10-02T14:54:10.111Z,0.60
2022-10-02T14:57:03.648Z,1.02
2022-10-02T14:59:58.613Z,1.17
2022-10-02T15:02:51.495Z,0.80
2022-10-02T15:05:39.911Z,0.15
2022-10-02T15:08:16.578Z,0.43
2022-10-02T15:10:48.164Z,0.35
2022-10-02T15:13:29.867Z,0.40
2022-10-02T15:16:34.415Z,0.35
2022-10-02T15:19:13.379Z,0.30
2022-10-02T15:21:52.138Z,0.73
2022-10-02T15:24:31.102Z,0.40
2022-10-02T15:27:17.830Z,0.28
2022-10-02T15:30:15.757Z,0.50
2022-10-02T15:33:15.697Z,0.30
2022-10-02T15:36:02.628Z,0.20
2022-10-02T15:38:51.248Z,0.50
2022-10-02T15:41:44.653Z,0.40
2022-10-02T15:44:31.508Z,0.45
2022-10-02T15:47:07.392Z,0.52
2022-10-02T15:50:02.454Z,0.60
2022-10-02T15:52:42.859Z,0.40
2022-10-02T15:55:21.500Z,0.32
2022-10-02T15:58:02.477Z,0.60
2022-10-02T16:00:58.323Z,0.55
2022-10-02T16:03:31.972Z,0.30
2022-10-02T16:06:16.471Z,0.60
2022-10-02T16:12:03.262Z,0.50
2022-10-02T16:14:50.331Z,0.20
2022-10-02T16:17:32.823Z,0.30
2022-10-02T16:20:18.244Z,0.40
2022-10-02T16:23:03.511Z,0.75
2022-10-02T16:25:53.007Z,0.68
2022-10-02T16:28:36.485Z,0.55
2022-10-02T16:31:26.250Z,0.88
2022-10-02T16:34:02.228Z,0.60
2022-10-02T16:36:38.207Z,0.60
2022-10-02T16:39:36.950Z,0.90
2022-10-02T16:42:21.135Z,0.80
2022-10-02T16:45:17.164Z,0.40
2022-10-02T16:47:50.087Z,0.60
2022-10-02T16:50:33.303Z,0.60
2022-10-02T16:53:15.754Z,0.30
2022-10-02T16:55:54.062Z,0.75
2022-10-02T16:58:27.749Z,0.52
2022-10-02T17:01:01.065Z,0.60
2022-10-02T17:03:35.649Z,0.70
2022-10-02T17:06:10.879Z,0.70
2022-10-02T17:08:45.282Z,1.02
2022-10-02T17:11:21.547Z,0.40
2022-10-02T17:14:19.331Z,0.55
2022-10-02T17:16:56.442Z,0.70
2022-10-02T17:19:29.260Z,0.52
2022-10-02T17:22:03.515Z,0.88
2022-10-02T17:27:19.044Z,0.63
2022-10-02T17:30:08.176Z,0.82
2022-10-02T17:32:48.735Z,0.40
2022-10-02T17:35:31.302Z,1.08
2022-10-02T17:38:43.805Z,1.05
2022-10-02T17:41:29.023Z,0.60
2022-10-02T17:44:11.351Z,0.50
2022-10-02T17:47:14.529Z,0.57
2022-10-02T17:49:59.160Z,0.47
2022-10-02T17:52:54.722Z,1.02
2022-10-02T17:56:24.918Z,1.23
2022-10-02T17:59:39.632Z,0.50
2022-10-02T18:02:32.753Z,0.65
2022-10-02T18:05:20.830Z,0.65
2022-10-02T18:08:29.761Z,1.20
2022-10-02T18:11:10.741Z,1.45
2022-10-02T18:13:58.698Z,0.60
2022-10-02T18:16:39.349Z,0.75
2022-10-02T18:19:29.262Z,0.98
2022-10-02T18:22:51.275Z,0.70
2022-10-02T18:25:59.134Z,1.25
2022-10-02T18:28:52.414Z,0.77
2022-10-02T18:32:02.905Z,0.75
2022-10-02T18:34:59.324Z,1.23
2022-10-02T18:38:05.002Z,0.73
2022-10-02T18:40:57.579Z,1.20
2022-10-02T18:44:21.321Z,0.80
2022-10-02T18:47:05.932Z,0.70
2022-10-02T18:50:00.410Z,0.65
2022-10-02T18:53:04.845Z,0.63
2022-10-02T18:56:03.287Z,0.60
2022-10-02T18:59:12.870Z,0.80
2022-10-02T19:01:58.410Z,1.02
2022-10-02T19:04:48.770Z,0.93
2022-10-02T19:07:26.944Z,1.00
2022-10-02T19:10:26.746Z,0.63
2022-10-02T19:13:11.681Z,0.75
2022-10-02T19:15:43.753Z,0.80
2022-10-02T19:18:26.928Z,1.88
2022-10-02T19:21:19.455Z,0.80
2022-10-02T19:24:02.543Z,0.55
2022-10-02T19:26:44.305Z,0.80
2022-10-02T19:29:26.370Z,1.00
2022-10-02T19:31:56.001Z,1.38
2022-10-02T19:34:27.897Z,0.75
2022-10-02T19:36:59.825Z,0.70
2022-10-02T19:39:32.121Z,0.65
2022-10-02T19:42:03.717Z,1.52
2022-10-02T19:44:34.647Z,1.00
2022-10-02T19:47:12.110Z,1.23
2022-10-02T19:49:41.894Z,0.60
2022-10-02T19:52:29.784Z,0.90
2022-10-02T19:55:07.458Z,1.48
2022-10-02T19:57:41.424Z,0.88
2022-10-02T20:00:16.641Z,0.70
2022-10-02T20:02:56.986Z,0.60
2022-10-02T20:05:26.632Z,0.88
2022-10-02T20:08:04.220Z,0.68
2022-10-02T20:10:47.039Z,0.80
2022-10-02T20:13:19.871Z,1.23
2022-10-02T20:16:12.211Z,0.98
2022-10-02T20:18:40.438Z,1.15
2022-10-02T20:21:27.203Z,0.47
2022-10-02T20:23:58.373Z,0.80
2022-10-02T20:26:35.624Z,0.55
2022-10-02T20:29:10.605Z,0.93
2022-10-02T20:31:46.587Z,0.60
2022-10-02T20:34:23.478Z,0.90
2022-10-02T20:36:59.567Z,0.68
2022-10-02T20:39:36.102Z,0.77
2022-10-02T20:42:21.148Z,1.00
2022-10-02T20:44:51.226Z,0.47
2022-10-02T20:47:58.376Z,1.08
2022-10-02T20:50:42.432Z,0.85
2022-10-02T20:53:44.390Z,0.82
2022-10-02T20:56:26.050Z,0.57
2022-10-02T20:59:21.848Z,0.50
2022-10-02T21:02:04.297Z,0.77
2022-10-02T21:05:14.352Z,0.63
2022-10-02T21:08:11.366Z,1.13
2022-10-02T21:11:13.408Z,0.40
2022-10-02T21:14:11.140Z,0.38
2022-10-02T21:17:14.095Z,0.65
2022-10-02T21:20:49.865Z,0.60
2022-10-02T21:24:02.870Z,0.60
2022-10-02T21:27:15.024Z,0.93
2022-10-02T21:30:05.488Z,0.90
2022-10-02T21:33:05.226Z,1.35
2022-10-02T21:35:41.037Z,0.55
2022-10-02T21:38:48.555Z,1.30
2022-10-02T21:41:53.894Z,0.98
2022-10-02T21:45:03.520Z,1.02
2022-10-02T21:47:43.600Z,1.08
2022-10-02T21:50:47.716Z,0.80
2022-10-02T21:53:49.541Z,1.20
2022-10-02T21:57:05.961Z,0.85
2022-10-02T22:00:07.018Z,0.82
2022-10-02T22:03:16.426Z,0.63
2022-10-02T22:06:08.631Z,1.38
2022-10-02T22:08:48.996Z,1.05
2022-10-02T22:11:28.322Z,1.00
2022-10-02T22:14:02.773Z,1.67
2022-10-02T22:16:45.725Z,0.98
2022-10-02T22:19:30.175Z,1.05
2022-10-02T22:25:14.002Z,0.70
2022-10-02T22:28:10.993Z,1.43
2022-10-02T22:31:00.168Z,0.80
2022-10-02T22:33:50.645Z,0.63
2022-10-02T22:36:43.370Z,0.88
2022-10-02T22:39:16.335Z,0.98
2022-10-02T22:41:55.119Z,1.00
2022-10-02T22:44:37.322Z,1.13
2022-10-02T22:47:24.766Z,0.98
2022-10-02T22:49:58.828Z,0.70
2022-10-02T22:55:08.824Z,1.15
2022-10-02T22:57:45.345Z,0.80
2022-10-02T23:00:18.998Z,0.80
2022-10-02T23:02:57.074Z,1.42
2022-10-02T23:05:36.473Z,1.55
2022-10-02T23:08:16.654Z,1.50
2022-10-02T23:10:50.127Z,1.40
2022-10-02T23:13:26.329Z,1.48
2022-10-02T23:16:10.082Z,0.50
2022-10-02T23:18:49.121Z,1.15
2022-10-02T23:21:44.592Z,1.00
2022-10-02T23:24:25.679Z,0.70
2022-10-02T23:26:56.715Z,0.50
2022-10-02T23:29:44.667Z,1.30
2022-10-02T23:32:24.085Z,1.02
2022-10-02T23:35:03.949Z,1.33
2022-10-02T23:37:43.973Z,0.60
2022-10-02T23:40:42.687Z,0.98
2022-10-02T23:43:14.793Z,1.10
2022-10-02T23:45:57.848Z,1.58
2022-10-02T23:48:28.794Z,1.00
2022-10-02T23:51:18.012Z,1.00
2022-10-02T23:54:11.336Z,1.23
2022-10-02T23:57:01.260Z,0.77
